Time;durP1;ratioP1;P1;durP2;ratioP2;P2;SDS_P1;SDS_P2;PMS_P1;PMS_P2;Temp;Humidity;BMP_temperature;BMP_pressure;BME280_temperature;BME280_humidity;BME280_pressure;Samples;Min_cycle;Max_cycle;Signal;HPM_P1;HPM_P2
2022/09/17 00:01:38;;;;;;;1.93;1.83;;;11.30;99.90;;;;;;5099647;27;20472;-85
2022/09/17 00:04:05;;;;;;;1.73;1.40;;;11.40;99.90;;;;;;5107783;28;21148;-84
2022/09/17 00:06:35;;;;;;;1.53;1.40;;;11.40;99.90;;;;;;5102823;27;20454;-83
2022/09/17 00:09:03;;;;;;;1.87;1.77;;;11.30;99.90;;;;;;5103964;28;20489;-83
2022/09/17 00:11:32;;;;;;;2.80;2.23;;;11.30;99.90;;;;;;5099288;27;20459;-84
2022/09/17 00:14:01;;;;;;;2.13;2.00;;;11.30;99.90;;;;;;5098494;28;20831;-84
2022/09/17 00:16:31;;;;;;;2.93;2.63;;;11.30;99.90;;;;;;5106187;27;20458;-82
2022/09/17 00:19:01;;;;;;;3.33;2.23;;;11.20;99.90;;;;;;5101592;28;20481;-83
2022/09/17 00:21:29;;;;;;;2.30;2.10;;;11.10;99.90;;;;;;5107196;27;20474;-84
2022/09/17 00:23:57;;;;;;;2.57;2.37;;;11.00;99.90;;;;;;5103488;28;21039;-83
2022/09/17 00:26:25;;;;;;;5.37;2.10;;;10.90;99.90;;;;;;5104394;28;20453;-84
2022/09/17 00:28:54;;;;;;;3.17;2.87;;;10.80;99.90;;;;;;5106850;27;20467;-82
2022/09/17 00:31:21;;;;;;;2.43;2.23;;;10.80;99.90;;;;;;5102664;27;20453;-83
2022/09/17 00:33:49;;;;;;;2.50;2.30;;;10.70;99.90;;;;;;5101713;27;20454;-83
2022/09/17 00:36:19;;;;;;;2.37;2.03;;;10.60;99.90;;;;;;5107774;27;20466;-84
2022/09/17 00:38:49;;;;;;;2.10;1.83;;;10.60;99.90;;;;;;5103714;27;20489;-84
2022/09/17 00:41:16;;;;;;;3.77;2.73;;;10.50;99.90;;;;;;5105363;27;20481;-84
2022/09/17 00:43:45;;;;;;;3.53;2.33;;;10.50;99.90;;;;;;5099322;28;20466;-83
2022/09/17 00:46:29;;;;;;;3.17;2.03;;;10.40;99.90;;;;;;5105845;27;20457;-84
2022/09/17 00:48:58;;;;;;;2.00;1.80;;;10.40;99.90;;;;;;5130418;27;20457;-85
2022/09/17 00:51:32;;;;;;;1.63;1.53;;;10.40;99.90;;;;;;5126689;27;20498;-86
2022/09/17 00:54:02;;;;;;;1.33;1.10;;;10.40;99.90;;;;;;5133878;27;20467;-85
2022/09/17 00:56:32;;;;;;;5.47;1.63;;;10.40;99.90;;;;;;5112692;28;20474;-85
2022/09/17 00:59:01;;;;;;;2.93;1.40;;;10.30;99.90;;;;;;5104764;27;20616;-83
2022/09/17 01:01:28;;;;;;;0.90;0.80;;;10.30;99.90;;;;;;5107151;27;21201;-86
2022/09/17 01:03:55;;;;;;;1.50;1.40;;;10.30;99.90;;;;;;5107571;28;20498;-85
2022/09/17 01:06:32;;;;;;;1.73;1.00;;;10.30;99.90;;;;;;5102563;27;20515;-84
2022/09/17 01:09:18;;;;;;;2.10;1.10;;;10.30;99.90;;;;;;5100888;27;20473;-84
2022/09/17 01:12:15;;;;;;;1.57;0.90;;;10.20;99.90;;;;;;5103692;27;20860;-85
2022/09/17 01:15:02;;;;;;;1.43;1.20;;;10.20;99.90;;;;;;5102997;28;20465;-85
2022/09/17 01:17:35;;;;;;;2.07;1.90;;;10.20;99.90;;;;;;5097729;27;20524;-84
2022/09/17 01:20:51;;;;;;;1.53;1.43;;;10.20;99.90;;;;;;5101213;27;20516;-84
2022/09/17 01:23:42;;;;;;;3.73;1.60;;;10.20;99.90;;;;;;5017076;28;20859;-85
2022/09/17 01:26:37;;;;;;;2.27;1.63;;;10.20;99.90;;;;;;5017276;28;20517;-86
2022/09/17 01:29:14;;;;;;;2.47;1.67;;;10.30;99.90;;;;;;5082923;28;21027;-84
2022/09/17 01:31:50;;;;;;;1.90;1.67;;;10.20;99.90;;;;;;5105262;27;20917;-84
2022/09/17 01:34:26;;;;;;;2.50;2.10;;;10.20;99.90;;;;;;5106200;27;20461;-84
2022/09/17 01:37:03;;;;;;;5.60;1.70;;;10.20;99.90;;;;;;5095124;28;20482;-84
2022/09/17 01:39:41;;;;;;;1.60;1.50;;;10.20;99.90;;;;;;5105515;27;20478;-86
2022/09/17 01:42:18;;;;;;;2.43;1.57;;;10.20;99.90;;;;;;5097185;27;20511;-85
2022/09/17 01:44:52;;;;;;;2.63;2.00;;;10.10;99.90;;;;;;5100334;27;21029;-85
2022/09/17 01:47:23;;;;;;;2.03;1.80;;;10.10;99.90;;;;;;5098798;27;21160;-83
2022/09/17 01:49:55;;;;;;;1.57;1.37;;;10.10;99.90;;;;;;5102350;27;20572;-83
2022/09/17 01:52:23;;;;;;;2.33;1.90;;;10.00;99.90;;;;;;5099431;28;20992;-84
2022/09/17 01:54:54;;;;;;;1.53;1.30;;;10.00;99.90;;;;;;5095287;28;20491;-85
2022/09/17 01:57:27;;;;;;;2.60;1.87;;;10.00;99.90;;;;;;5103384;27;20470;-85
2022/09/17 01:59:59;;;;;;;1.57;1.47;;;9.90;99.90;;;;;;5101527;27;20458;-85
2022/09/17 02:02:32;;;;;;;1.63;1.40;;;10.00;99.90;;;;;;5102433;27;20465;-85
2022/09/17 02:05:05;;;;;;;3.90;1.97;;;10.00;99.90;;;;;;5103809;27;20518;-86
2022/09/17 02:07:37;;;;;;;2.03;1.10;;;9.90;99.90;;;;;;5101399;28;20564;-84
2022/09/17 02:10:08;;;;;;;2.63;1.60;;;9.90;99.90;;;;;;5100019;27;20797;-84
2022/09/17 02:12:39;;;;;;;1.57;1.47;;;9.90;99.90;;;;;;5102528;27;20474;-86
2022/09/17 02:15:10;;;;;;;4.20;1.30;;;9.80;99.90;;;;;;5097895;27;20459;-84
2022/09/17 02:17:42;;;;;;;2.10;2.00;;;9.80;99.90;;;;;;5103891;28;20450;-86
2022/09/17 02:20:11;;;;;;;1.70;1.60;;;9.90;99.90;;;;;;5104226;28;21212;-84
2022/09/17 02:22:43;;;;;;;2.13;1.57;;;9.90;99.90;;;;;;5096590;27;21198;-85
2022/09/17 02:25:18;;;;;;;3.23;2.10;;;9.90;99.90;;;;;;5099503;28;20552;-85
2022/09/17 02:27:52;;;;;;;2.67;1.50;;;9.90;99.90;;;;;;5103616;27;20504;-84
2022/09/17 02:30:19;;;;;;;1.77;1.67;;;9.90;99.90;;;;;;5097972;27;20546;-84
2022/09/17 02:32:48;;;;;;;1.53;1.43;;;9.90;99.90;;;;;;5100120;28;20459;-82
2022/09/17 02:35:16;;;;;;;0.90;0.80;;;9.90;99.90;;;;;;5104017;27;20549;-85
2022/09/17 02:37:44;;;;;;;6.63;3.00;;;9.90;99.90;;;;;;5102184;27;21258;-84
2022/09/17 02:40:13;;;;;;;2.10;1.60;;;9.90;99.90;;;;;;5099425;27;20458;-84
2022/09/17 02:42:56;;;;;;;1.70;0.90;;;9.80;99.90;;;;;;5097777;27;21165;-84
2022/09/17 02:45:36;;;;;;;1.87;1.40;;;9.80;99.90;;;;;;5100963;27;20515;-83
2022/09/17 02:48:25;;;;;;;1.10;1.00;;;9.90;99.90;;;;;;5098301;27;21017;-85
2022/09/17 02:51:05;;;;;;;1.10;1.00;;;9.80;99.90;;;;;;5100954;27;20474;-85
2022/09/17 02:53:39;;;;;;;1.93;0.90;;;9.80;99.90;;;;;;5095579;28;20972;-85
2022/09/17 02:56:18;;;;;;;1.80;1.20;;;9.80;99.90;;;;;;5098761;27;20468;-84
2022/09/17 02:58:52;;;;;;;1.80;1.00;;;9.80;99.90;;;;;;5102660;27;20533;-83
2022/09/17 03:01:25;;;;;;;1.27;1.17;;;9.80;99.90;;;;;;5100436;27;21128;-84
2022/09/17 03:03:56;;;;;;;1.53;0.70;;;9.90;99.90;;;;;;5103133;28;20634;-84
2022/09/17 03:06:23;;;;;;;1.37;1.13;;;9.80;99.90;;;;;;5097815;28;20459;-83
2022/09/17 03:08:50;;;;;;;1.83;1.10;;;9.90;99.90;;;;;;5096014;28;20586;-85
2022/09/17 03:11:17;;;;;;;2.30;1.50;;;9.90;99.90;;;;;;5096033;28;20468;-84
2022/09/17 03:13:44;;;;;;;2.00;1.40;;;9.90;99.90;;;;;;5100935;28;20458;-83
2022/09/17 03:16:11;;;;;;;1.83;1.67;;;9.90;99.90;;;;;;5098922;28;21005;-83
2022/09/17 03:18:38;;;;;;;1.60;1.50;;;9.90;99.90;;;;;;5100793;28;20536;-84
2022/09/17 03:21:07;;;;;;;1.57;1.47;;;9.90;99.90;;;;;;5096807;28;20462;-85
2022/09/17 03:23:34;;;;;;;2.20;1.23;;;9.90;99.90;;;;;;5098435;28;20877;-84
2022/09/17 03:26:01;;;;;;;1.50;1.40;;;9.90;99.90;;;;;;5097626;28;20555;-83
2022/09/17 03:28:27;;;;;;;1.60;1.50;;;9.90;99.90;;;;;;5105464;28;20465;-84
2022/09/17 03:30:54;;;;;;;1.50;1.40;;;9.90;99.90;;;;;;5097046;28;20582;-84
2022/09/17 03:33:21;;;;;;;1.40;1.30;;;9.90;99.90;;;;;;5096088;28;21177;-84
2022/09/17 03:35:48;;;;;;;1.30;1.20;;;10.00;99.90;;;;;;5096854;28;20471;-85
2022/09/17 03:38:17;;;;;;;1.50;1.40;;;10.00;99.90;;;;;;5103577;27;20531;-83
2022/09/17 03:40:44;;;;;;;4.23;2.27;;;10.00;99.90;;;;;;5100037;27;20474;-83
2022/09/17 03:43:11;;;;;;;2.30;1.20;;;10.00;99.90;;;;;;5102519;27;20470;-83
2022/09/17 03:45:38;;;;;;;2.33;1.60;;;10.00;99.90;;;;;;5096951;27;20462;-84
2022/09/17 03:48:05;;;;;;;2.27;2.07;;;10.00;99.90;;;;;;5105479;27;21007;-85
2022/09/17 03:50:32;;;;;;;3.63;2.53;;;10.00;99.90;;;;;;5104720;27;20465;-83
2022/09/17 03:52:59;;;;;;;3.00;1.77;;;10.00;99.90;;;;;;5100546;28;21180;-83
2022/09/17 03:55:27;;;;;;;2.87;2.60;;;10.00;99.90;;;;;;5102846;27;20465;-85
2022/09/17 03:57:54;;;;;;;2.60;2.40;;;10.00;99.90;;;;;;5103396;28;20467;-85
2022/09/17 04:00:22;;;;;;;2.63;2.43;;;10.00;99.90;;;;;;5108396;28;20481;-83
2022/09/17 04:02:49;;;;;;;3.60;3.03;;;10.00;99.90;;;;;;5106527;27;21308;-83
2022/09/17 04:05:16;;;;;;;3.33;1.97;;;10.00;99.90;;;;;;5114758;27;20568;-85
2022/09/17 04:07:43;;;;;;;3.50;2.00;;;10.00;99.90;;;;;;5124601;28;20481;-85
2022/09/17 04:10:10;;;;;;;2.13;1.93;;;9.90;99.90;;;;;;5131133;28;20455;-83
2022/09/17 04:12:39;;;;;;;2.47;2.27;;;9.90;99.90;;;;;;5134160;28;20476;-84
2022/09/17 04:15:07;;;;;;;3.17;2.87;;;9.90;99.90;;;;;;5113480;28;20454;-83
2022/09/17 04:17:34;;;;;;;2.67;2.47;;;9.90;99.90;;;;;;5109496;28;20450;-83
2022/09/17 04:20:01;;;;;;;2.50;2.17;;;9.90;99.90;;;;;;5103378;28;20478;-85
2022/09/17 04:22:28;;;;;;;2.80;2.23;;;9.90;99.90;;;;;;5105783;28;20453;-85
2022/09/17 04:24:55;;;;;;;2.57;2.37;;;9.90;99.90;;;;;;5104457;28;21545;-83
2022/09/17 04:27:22;;;;;;;2.50;2.30;;;9.90;99.90;;;;;;5107049;27;20434;-84
2022/09/17 04:29:51;;;;;;;3.30;2.80;;;9.90;99.90;;;;;;5108499;28;20520;-84
2022/09/17 04:32:18;;;;;;;1.63;1.43;;;9.90;99.90;;;;;;5107101;27;20522;-84
2022/09/17 04:34:45;;;;;;;3.03;2.63;;;9.90;99.90;;;;;;5105018;27;20461;-84
2022/09/17 04:37:12;;;;;;;3.43;3.13;;;10.00;99.90;;;;;;5097796;27;20449;-83
2022/09/17 04:39:39;;;;;;;4.20;3.00;;;10.00;99.90;;;;;;5106541;27;20537;-84
2022/09/17 04:42:06;;;;;;;4.50;3.50;;;10.00;99.90;;;;;;5101949;28;20465;-83
2022/09/17 04:44:33;;;;;;;4.47;3.77;;;9.90;99.90;;;;;;5093175;28;21045;-83
2022/09/17 04:47:01;;;;;;;3.73;2.90;;;10.00;99.90;;;;;;5101439;28;20484;-83
2022/09/17 04:49:29;;;;;;;4.00;3.43;;;10.00;99.90;;;;;;5099966;27;20516;-84
2022/09/17 04:51:56;;;;;;;3.20;3.00;;;9.90;99.90;;;;;;5102745;27;20474;-83
2022/09/17 04:54:23;;;;;;;4.17;3.77;;;10.00;99.90;;;;;;5104997;27;20526;-83
2022/09/17 04:56:50;;;;;;;6.27;3.77;;;10.00;99.90;;;;;;5102153;27;20465;-83
2022/09/17 04:59:17;;;;;;;2.43;2.23;;;9.90;99.90;;;;;;5100491;27;20482;-83
2022/09/17 05:01:44;;;;;;;5.00;3.50;;;9.90;99.90;;;;;;5106480;27;20511;-84
2022/09/17 05:04:13;;;;;;;3.30;3.00;;;9.90;99.90;;;;;;5106907;28;20515;-85
2022/09/17 05:06:40;;;;;;;2.70;2.50;;;9.90;99.90;;;;;;5105534;27;20466;-83
2022/09/17 05:09:07;;;;;;;3.60;2.60;;;9.90;99.90;;;;;;5095968;27;20462;-83
2022/09/17 05:11:34;;;;;;;3.60;3.30;;;9.90;99.90;;;;;;5107400;27;20991;-85
2022/09/17 05:14:01;;;;;;;3.73;3.40;;;9.90;99.90;;;;;;5105567;27;21109;-84
2022/09/17 05:16:28;;;;;;;5.00;4.50;;;9.90;99.90;;;;;;5100044;27;20466;-83
2022/09/17 05:18:56;;;;;;;5.37;4.83;;;9.90;99.90;;;;;;5103988;28;20575;-83
2022/09/17 05:21:25;;;;;;;4.20;3.80;;;9.90;99.90;;;;;;5106125;27;20454;-83
2022/09/17 05:23:52;;;;;;;5.87;3.60;;;9.90;99.90;;;;;;5101817;28;20461;-83
2022/09/17 05:26:19;;;;;;;5.83;2.90;;;10.00;99.90;;;;;;5102794;28;20458;-86
2022/09/17 05:28:46;;;;;;;8.63;4.30;;;10.00;99.90;;;;;;5107252;27;20545;-83
2022/09/17 05:31:13;;;;;;;4.67;4.27;;;10.00;99.90;;;;;;5102616;28;20477;-84
2022/09/17 05:33:41;;;;;;;4.87;4.47;;;10.00;99.90;;;;;;5101148;27;20467;-85
2022/09/17 05:36:08;;;;;;;4.90;3.73;;;10.00;99.90;;;;;;5104422;27;20474;-83
2022/09/17 05:38:37;;;;;;;5.60;4.17;;;10.00;99.90;;;;;;5102596;28;21039;-83
2022/09/17 05:41:05;;;;;;;4.23;3.67;;;10.00;99.90;;;;;;5106506;27;21541;-83
2022/09/17 05:43:32;;;;;;;3.17;2.97;;;10.00;99.90;;;;;;5101887;27;21089;-84
2022/09/17 05:46:02;;;;;;;5.00;4.60;;;10.00;99.90;;;;;;5100198;28;20446;-83
2022/09/17 05:48:29;;;;;;;4.60;4.23;;;10.00;99.90;;;;;;5101212;28;20850;-83
2022/09/17 05:50:56;;;;;;;4.50;4.10;;;10.00;99.90;;;;;;5101655;28;20461;-82
2022/09/17 05:53:23;;;;;;;4.40;2.90;;;10.00;99.90;;;;;;5103836;27;20471;-84
2022/09/17 05:55:55;;;;;;;3.20;2.90;;;10.00;99.90;;;;;;5102625;28;20539;-83
2022/09/17 05:58:22;;;;;;;3.70;3.33;;;10.00;99.90;;;;;;5101230;28;20450;-83
2022/09/17 06:00:49;;;;;;;4.10;3.37;;;9.90;99.90;;;;;;5097582;28;20555;-81
2022/09/17 06:03:18;;;;;;;2.70;2.50;;;9.90;99.90;;;;;;5104429;28;20609;-82
2022/09/17 06:05:53;;;;;;;3.07;2.80;;;9.90;99.90;;;;;;5100933;28;20521;-82
2022/09/17 06:08:20;;;;;;;3.80;3.23;;;10.00;99.90;;;;;;5101475;28;20473;-82
2022/09/17 06:10:48;;;;;;;3.20;2.90;;;9.90;99.90;;;;;;5095175;27;20572;-82
2022/09/17 06:13:16;;;;;;;2.70;2.50;;;9.90;99.90;;;;;;5103575;27;20493;-82
2022/09/17 06:15:43;;;;;;;2.77;2.43;;;9.90;99.90;;;;;;5097349;27;20457;-83
2022/09/17 06:18:10;;;;;;;4.57;3.00;;;9.90;99.90;;;;;;5100723;27;20458;-82
2022/09/17 06:20:37;;;;;;;4.20;2.50;;;9.90;99.90;;;;;;5102112;27;20547;-81
2022/09/17 06:23:04;;;;;;;2.40;2.20;;;9.90;99.90;;;;;;5102016;27;20511;-83
2022/09/17 06:25:31;;;;;;;3.77;3.37;;;9.90;99.90;;;;;;5101456;27;20461;-82
2022/09/17 06:27:58;;;;;;;2.40;2.20;;;9.90;99.90;;;;;;5103854;28;20450;-83
2022/09/17 06:30:26;;;;;;;5.43;1.97;;;9.90;99.90;;;;;;5093439;27;20494;-83
2022/09/17 06:32:53;;;;;;;3.03;1.43;;;9.80;99.90;;;;;;5097310;27;20891;-83
2022/09/17 06:35:20;;;;;;;5.07;1.70;;;9.90;99.90;;;;;;5103217;27;20458;-81
2022/09/17 06:37:47;;;;;;;1.67;1.40;;;9.80;99.90;;;;;;5102091;27;20458;-84
2022/09/17 06:40:15;;;;;;;3.10;1.00;;;9.80;99.90;;;;;;5096982;27;20493;-83
2022/09/17 06:42:42;;;;;;;3.10;1.80;;;9.90;99.90;;;;;;5100465;27;20453;-82
2022/09/17 06:45:09;;;;;;;5.33;1.57;;;9.80;99.90;;;;;;5094680;27;20451;-82
2022/09/17 06:47:38;;;;;;;6.70;1.23;;;9.90;99.90;;;;;;5113251;27;20470;-83
2022/09/17 06:50:06;;;;;;;2.90;1.70;;;10.00;99.90;;;;;;5100303;27;20989;-82
2022/09/17 06:52:32;;;;;;;1.60;0.90;;;9.90;99.90;;;;;;5111693;27;20515;-79
2022/09/17 06:54:59;;;;;;;2.07;1.27;;;10.00;99.90;;;;;;5108451;27;20461;-82
2022/09/17 06:57:26;;;;;;;1.47;1.40;;;10.10;99.90;;;;;;5108383;27;20462;-83
2022/09/17 06:59:53;;;;;;;1.30;1.20;;;10.10;99.90;;;;;;5099730;27;20477;-82
2022/09/17 07:02:20;;;;;;;2.70;1.20;;;10.10;99.90;;;;;;5093763;28;20591;-82
2022/09/17 07:04:49;;;;;;;1.20;1.10;;;10.10;99.90;;;;;;5098597;28;20567;-82
2022/09/17 07:07:16;;;;;;;4.27;1.73;;;10.10;99.90;;;;;;5097037;28;20543;-83
2022/09/17 07:09:43;;;;;;;1.20;1.10;;;10.10;99.90;;;;;;5102524;27;20469;-83
2022/09/17 07:12:10;;;;;;;3.13;1.03;;;10.10;99.90;;;;;;5116028;27;20514;-84
2022/09/17 07:14:37;;;;;;;0.83;0.83;;;10.20;99.90;;;;;;5097135;28;20522;-82
2022/09/17 07:17:04;;;;;;;1.37;1.27;;;10.10;99.90;;;;;;5099190;28;20458;-83
2022/09/17 07:19:31;;;;;;;1.27;1.17;;;10.10;99.90;;;;;;5099870;28;20482;-84
2022/09/17 07:21:59;;;;;;;2.00;1.40;;;10.10;99.90;;;;;;5101701;27;20462;-83
2022/09/17 07:24:26;;;;;;;1.17;1.10;;;10.10;99.90;;;;;;5102868;28;20531;-84
2022/09/17 07:26:53;;;;;;;1.90;0.87;;;10.00;99.90;;;;;;5098769;28;20466;-84
2022/09/17 07:29:22;;;;;;;1.33;0.90;;;10.00;99.90;;;;;;5101133;28;20488;-83
2022/09/17 07:31:49;;;;;;;1.67;1.53;;;10.00;99.90;;;;;;5105855;27;20463;-85
2022/09/17 07:34:16;;;;;;;1.57;1.20;;;10.00;99.90;;;;;;5097502;28;20457;-84
2022/09/17 07:36:44;;;;;;;0.90;0.90;;;10.00;99.90;;;;;;5099724;28;20533;-84
2022/09/17 07:39:13;;;;;;;2.30;0.83;;;10.00;99.90;;;;;;5093078;28;20541;-84
2022/09/17 07:41:40;;;;;;;0.90;0.90;;;10.10;99.90;;;;;;5099911;28;20581;-84
2022/09/17 07:44:08;;;;;;;1.43;1.30;;;10.10;99.90;;;;;;5098727;28;21142;-83
2022/09/17 07:46:35;;;;;;;0.90;0.90;;;10.20;99.90;;;;;;5105963;28;20469;-82
2022/09/17 07:49:02;;;;;;;2.00;1.10;;;10.10;99.90;;;;;;5105417;28;20474;-81
2022/09/17 07:51:29;;;;;;;1.27;1.00;;;10.20;99.90;;;;;;5105951;28;20506;-85
2022/09/17 07:53:58;;;;;;;1.00;1.00;;;10.20;99.90;;;;;;5095164;28;20483;-84
2022/09/17 07:56:27;;;;;;;3.07;1.57;;;10.30;99.90;;;;;;5103380;27;20986;-83
2022/09/17 07:58:55;;;;;;;3.37;1.37;;;10.20;99.90;;;;;;5104048;28;20493;-86
2022/09/17 08:01:22;;;;;;;1.43;1.00;;;10.30;99.90;;;;;;5098277;28;20563;-84
2022/09/17 08:03:51;;;;;;;5.70;1.30;;;10.40;99.90;;;;;;5092172;28;20465;-85
2022/09/17 08:06:20;;;;;;;1.73;1.40;;;10.40;99.90;;;;;;5098565;28;20461;-83
2022/09/17 08:08:48;;;;;;;3.93;1.57;;;10.40;99.90;;;;;;5102732;28;20863;-84
2022/09/17 08:11:16;;;;;;;2.13;1.47;;;10.40;99.90;;;;;;5104354;28;20830;-85
2022/09/17 08:13:48;;;;;;;1.43;1.33;;;10.30;99.90;;;;;;5100648;28;20949;-83
2022/09/17 08:16:15;;;;;;;4.77;2.40;;;10.30;99.90;;;;;;5099750;28;20457;-84
2022/09/17 08:18:43;;;;;;;1.63;1.10;;;10.20;99.90;;;;;;5108877;28;20547;-84
2022/09/17 08:21:12;;;;;;;5.07;2.20;;;10.30;99.90;;;;;;5095889;28;20510;-82
2022/09/17 08:23:43;;;;;;;2.23;2.00;;;10.30;99.90;;;;;;5095860;27;20462;-83
2022/09/17 08:26:13;;;;;;;3.70;2.90;;;10.40;99.90;;;;;;5099846;27;20987;-87
2022/09/17 08:28:46;;;;;;;2.03;1.93;;;10.40;99.90;;;;;;5104439;28;20465;-88
2022/09/17 08:31:15;;;;;;;2.73;2.03;;;10.40;99.90;;;;;;5103155;27;20924;-85
2022/09/17 08:33:42;;;;;;;4.20;2.17;;;10.40;99.90;;;;;;5111163;27;20473;-85
2022/09/17 08:36:12;;;;;;;3.57;2.10;;;10.40;99.90;;;;;;5104279;27;20518;-85
2022/09/17 08:38:39;;;;;;;1.60;1.50;;;10.40;99.90;;;;;;5109879;27;20461;-84
2022/09/17 08:41:19;;;;;;;1.40;1.30;;;10.50;99.90;;;;;;5111971;27;20506;-85
2022/09/17 08:43:58;;;;;;;2.67;1.33;;;10.50;99.90;;;;;;5104163;27;20464;-88
2022/09/17 08:46:26;;;;;;;2.10;1.33;;;10.50;99.90;;;;;;5105442;27;21278;-85
2022/09/17 08:49:02;;;;;;;2.60;1.67;;;10.60;99.90;;;;;;5099799;27;20465;-87
2022/09/17 08:51:38;;;;;;;1.60;1.50;;;10.50;99.90;;;;;;5100624;27;21069;-88
2022/09/17 08:54:14;;;;;;;1.13;1.00;;;10.50;99.90;;;;;;5099218;28;20508;-87
2022/09/17 08:56:43;;;;;;;1.77;1.20;;;10.50;99.90;;;;;;5099760;27;20518;-87
2022/09/17 08:59:22;;;;;;;3.13;1.83;;;10.60;99.90;;;;;;5101243;27;20459;-87
2022/09/17 09:01:58;;;;;;;2.40;2.10;;;10.60;99.90;;;;;;5105122;27;20567;-86
2022/09/17 09:04:57;;;;;;;2.80;1.37;;;10.70;99.90;;;;;;5099169;27;20466;-86
2022/09/17 09:07:28;;;;;;;6.03;2.20;;;10.80;99.90;;;;;;5104297;27;20458;-84
2022/09/17 09:10:05;;;;;;;1.43;1.30;;;10.80;99.90;;;;;;5104135;27;20542;-84
2022/09/17 09:12:35;;;;;;;1.67;1.43;;;10.90;99.90;;;;;;5101082;27;20866;-84
2022/09/17 09:15:08;;;;;;;1.50;1.40;;;11.00;99.90;;;;;;5093045;27;20523;-84
2022/09/17 09:17:42;;;;;;;1.63;1.53;;;11.10;99.90;;;;;;5100043;27;20462;-86
2022/09/17 09:20:16;;;;;;;2.80;1.87;;;11.10;99.90;;;;;;5112945;27;21200;-86
2022/09/17 09:22:49;;;;;;;1.77;0.80;;;11.10;99.90;;;;;;5110170;27;20466;-86
2022/09/17 09:25:22;;;;;;;2.93;1.30;;;11.10;99.90;;;;;;5102333;27;20464;-85
2022/09/17 09:28:03;;;;;;;4.00;1.23;;;11.20;99.90;;;;;;5128935;27;20515;-85
2022/09/17 09:30:41;;;;;;;2.70;0.87;;;11.10;99.90;;;;;;5120002;27;20499;-85
2022/09/17 09:33:14;;;;;;;3.33;1.33;;;11.00;99.90;;;;;;5109504;27;20491;-85
2022/09/17 09:35:43;;;;;;;6.77;1.30;;;11.00;99.90;;;;;;5105811;28;20454;-85
2022/09/17 09:38:18;;;;;;;1.40;1.30;;;11.20;99.90;;;;;;5108608;27;20541;-85
2022/09/17 09:40:51;;;;;;;1.00;0.90;;;11.20;99.90;;;;;;5129744;27;20505;-85
2022/09/17 09:43:22;;;;;;;2.17;1.27;;;11.40;99.90;;;;;;5127534;27;20935;-86
2022/09/17 09:46:18;;;;;;;2.80;1.00;;;11.50;99.90;;;;;;5118361;27;20463;-86
2022/09/17 09:48:54;;;;;;;1.53;0.90;;;11.70;99.90;;;;;;5118058;27;20461;-85
2022/09/17 09:51:33;;;;;;;3.17;1.53;;;11.80;99.90;;;;;;5101300;28;20514;-88
2022/09/17 09:54:13;;;;;;;3.07;1.00;;;11.90;99.90;;;;;;5115672;27;20538;-85
2022/09/17 09:56:54;;;;;;;1.07;0.80;;;11.70;99.90;;;;;;5100815;27;20466;-86
2022/09/17 09:59:21;;;;;;;2.80;1.10;;;11.70;99.90;;;;;;5099382;27;20480;-86
2022/09/17 10:01:50;;;;;;;4.37;1.10;;;11.70;99.90;;;;;;5103917;28;20493;-87
2022/09/17 10:04:20;;;;;;;0.73;0.70;;;11.80;99.90;;;;;;5104451;28;20466;-87
2022/09/17 10:06:49;;;;;;;0.97;0.73;;;11.80;99.90;;;;;;5106811;27;20499;-86
2022/09/17 10:09:20;;;;;;;3.20;0.90;;;12.00;99.90;;;;;;5094114;28;20450;-86
2022/09/17 10:12:01;;;;;;;1.90;0.50;;;12.00;99.90;;;;;;5094628;27;20454;-87
2022/09/17 10:14:30;;;;;;;2.13;0.60;;;12.20;99.90;;;;;;5105382;27;20984;-86
2022/09/17 10:17:19;;;;;;;1.93;0.40;;;12.40;99.90;;;;;;5110400;27;20458;-88
2022/09/17 10:20:09;;;;;;;1.33;0.60;;;12.20;99.90;;;;;;5097140;28;20455;-87
2022/09/17 10:22:38;;;;;;;2.17;0.73;;;12.20;99.90;;;;;;5111412;27;20442;-85
2022/09/17 10:25:17;;;;;;;0.90;0.60;;;12.20;99.90;;;;;;5111871;27;20457;-85
2022/09/17 10:27:45;;;;;;;0.80;0.47;;;12.20;99.90;;;;;;5110823;27;20544;-85
2022/09/17 10:30:16;;;;;;;2.30;0.60;;;12.00;99.90;;;;;;5110703;27;20496;-86
2022/09/17 10:32:44;;;;;;;1.53;0.50;;;11.90;99.90;;;;;;5113039;27;21013;-87
2022/09/17 10:35:26;;;;;;;0.60;0.60;;;11.90;99.90;;;;;;5115186;27;20544;-85
2022/09/17 10:37:54;;;;;;;1.17;0.60;;;12.00;99.90;;;;;;5110234;27;20449;-87
2022/09/17 10:40:30;;;;;;;1.63;0.80;;;12.00;99.90;;;;;;5108629;27;21124;-86
2022/09/17 10:43:18;;;;;;;2.57;0.50;;;12.00;99.90;;;;;;5099716;28;20456;-86
2022/09/17 10:45:55;;;;;;;0.60;0.60;;;11.90;99.90;;;;;;5098386;28;20458;-86
2022/09/17 10:48:27;;;;;;;0.90;0.60;;;11.90;99.90;;;;;;5097828;28;20469;-86
2022/09/17 10:50:55;;;;;;;4.40;0.87;;;12.00;99.90;;;;;;5103047;28;20555;-86
2022/09/17 10:53:25;;;;;;;1.30;0.70;;;12.00;99.90;;;;;;5100528;27;20903;-86
2022/09/17 10:55:58;;;;;;;1.70;0.70;;;12.00;99.90;;;;;;5104538;27;20519;-86
2022/09/17 10:58:43;;;;;;;1.87;0.60;;;12.00;99.90;;;;;;5103157;28;20545;-86
2022/09/17 11:01:25;;;;;;;3.23;0.50;;;12.00;99.90;;;;;;5105164;27;20542;-85
2022/09/17 11:04:12;;;;;;;1.07;0.50;;;12.20;99.90;;;;;;5102174;27;20510;-87
2022/09/17 11:07:17;;;;;;;1.83;0.70;;;12.30;99.90;;;;;;5102021;27;20550;-87
2022/09/17 11:09:55;;;;;;;1.37;0.40;;;12.20;99.90;;;;;;5100389;27;20554;-87
2022/09/17 11:12:36;;;;;;;2.10;0.50;;;12.20;99.90;;;;;;5110630;27;20550;-85
2022/09/17 11:15:18;;;;;;;0.60;0.50;;;12.00;99.90;;;;;;5094777;27;20451;-86
2022/09/17 11:18:12;;;;;;;0.53;0.40;;;11.70;99.90;;;;;;5100639;28;20566;-88
2022/09/17 11:21:04;;;;;;;1.90;0.57;;;11.60;99.90;;;;;;5106483;27;20526;-85
2022/09/17 11:23:57;;;;;;;0.50;0.50;;;11.40;99.90;;;;;;5103596;28;20450;-84
2022/09/17 11:26:32;;;;;;;1.53;0.60;;;11.30;99.90;;;;;;5091461;28;20475;-85
2022/09/17 11:29:10;;;;;;;3.37;0.80;;;11.20;99.90;;;;;;5099224;28;20457;-84
2022/09/17 11:31:43;;;;;;;0.80;0.40;;;11.20;99.90;;;;;;5097468;28;20909;-85
2022/09/17 11:34:25;;;;;;;1.33;0.40;;;11.10;99.90;;;;;;5102090;28;20442;-85
2022/09/17 11:36:58;;;;;;;1.83;0.50;;;11.10;99.90;;;;;;5096289;28;20465;-86
2022/09/17 11:39:32;;;;;;;0.70;0.60;;;11.10;99.90;;;;;;5098562;28;20514;-85
2022/09/17 11:42:04;;;;;;;0.80;0.40;;;11.00;99.90;;;;;;5098270;28;20938;-84
2022/09/17 11:44:37;;;;;;;1.33;0.50;;;11.00;99.90;;;;;;5099169;28;20857;-86
2022/09/17 11:47:12;;;;;;;0.50;0.37;;;10.90;99.90;;;;;;5089717;28;20471;-84
2022/09/17 11:49:45;;;;;;;0.90;0.47;;;10.90;99.90;;;;;;5100878;28;20511;-85
2022/09/17 11:52:20;;;;;;;0.70;0.53;;;10.80;99.90;;;;;;5097500;28;20463;-84
2022/09/17 11:54:52;;;;;;;0.80;0.63;;;10.50;99.90;;;;;;5098147;28;20458;-85
2022/09/17 11:57:25;;;;;;;2.23;0.60;;;10.10;99.90;;;;;;5097240;28;20479;-87
2022/09/17 11:59:56;;;;;;;1.27;0.70;;;9.90;99.90;;;;;;5102292;27;20510;-84
2022/09/17 12:02:27;;;;;;;0.80;0.60;;;9.80;99.90;;;;;;5114758;27;20477;-84
2022/09/17 12:05:03;;;;;;;1.17;0.90;;;9.80;99.90;;;;;;5108683;27;20612;-85
2022/09/17 12:07:40;;;;;;;2.87;0.80;;;9.80;99.90;;;;;;5102658;27;20465;-84
2022/09/17 12:10:20;;;;;;;0.70;0.50;;;9.80;99.90;;;;;;5094125;28;20473;-84
2022/09/17 12:12:55;;;;;;;1.93;0.67;;;9.80;99.90;;;;;;5104983;27;21135;-84
2022/09/17 12:15:24;;;;;;;0.67;0.50;;;9.90;99.90;;;;;;5106921;27;20452;-84
2022/09/17 12:17:59;;;;;;;0.80;0.40;;;9.80;99.90;;;;;;5105272;27;20993;-87
2022/09/17 12:20:32;;;;;;;1.70;0.60;;;9.90;99.90;;;;;;5093309;28;20510;-87
2022/09/17 12:23:05;;;;;;;0.63;0.40;;;10.00;99.90;;;;;;5109566;27;20509;-84
2022/09/17 12:25:38;;;;;;;0.50;0.40;;;10.20;99.90;;;;;;5104782;28;20533;-88
2022/09/17 12:28:09;;;;;;;0.70;0.30;;;10.40;99.90;;;;;;5108146;27;20476;-85
2022/09/17 12:30:38;;;;;;;0.67;0.40;;;10.60;99.90;;;;;;5095650;28;20524;-84
2022/09/17 12:33:16;;;;;;;0.80;0.50;;;10.70;99.90;;;;;;5100476;27;20589;-85
2022/09/17 12:36:03;;;;;;;0.53;0.40;;;10.90;99.90;;;;;;5103996;27;20493;-84
2022/09/17 12:38:48;;;;;;;2.43;0.50;;;11.00;99.90;;;;;;5105973;27;20461;-84
2022/09/17 12:41:21;;;;;;;0.40;0.30;;;11.30;99.90;;;;;;5100060;28;20485;-85
2022/09/17 12:44:10;;;;;;;0.50;0.33;;;11.30;99.90;;;;;;5100538;27;20466;-86
2022/09/17 12:46:53;;;;;;;0.50;0.40;;;11.40;99.90;;;;;;5094989;28;20454;-84
2022/09/17 12:49:32;;;;;;;0.50;0.40;;;11.30;99.90;;;;;;5105832;27;20462;-87
2022/09/17 12:52:03;;;;;;;0.50;0.30;;;10.90;99.90;;;;;;5102531;27;20500;-86
2022/09/17 12:54:48;;;;;;;1.47;0.40;;;10.40;99.90;;;;;;5104949;28;20545;-87
2022/09/17 12:57:29;;;;;;;1.37;0.50;;;10.00;99.90;;;;;;5107455;28;20785;-87
2022/09/17 13:00:01;;;;;;;1.60;0.40;;;9.90;99.90;;;;;;5104626;28;20973;-89
2022/09/17 13:02:33;;;;;;;0.50;0.40;;;9.90;99.90;;;;;;5109374;27;20515;-87
2022/09/17 13:05:32;;;;;;;0.50;0.30;;;10.00;99.90;;;;;;5111658;27;20454;-88
2022/09/17 13:08:29;;;;;;;0.40;0.37;;;10.20;99.90;;;;;;5114437;28;20465;-86
2022/09/17 13:11:34;;;;;;;0.57;0.40;;;10.40;99.90;;;;;;5122722;27;20538;-84
2022/09/17 13:14:10;;;;;;;0.50;0.30;;;10.60;99.90;;;;;;5087235;27;20457;-82
2022/09/17 13:16:42;;;;;;;0.50;0.40;;;10.60;99.90;;;;;;5123263;27;20485;-83